Time;durP1;ratioP1;P1;durP2;ratioP2;P2;SDS_P1;SDS_P2;PMS_P1;PMS_P2;Temp;Humidity;BMP_temperature;BMP_pressure;BME280_temperature;BME280_humidity;BME280_pressure;Samples;Min_cycle;Max_cycle;Signal;HPM_P1;HPM_P2
2022/02/18 00:01:07;;;;;;;16.03;3.03;;;;;;;-145.69;77.87;72071.03;5114307;28;20213;-78
2022/02/18 00:03:34;;;;;;;14.40;2.87;;;;;;;-145.69;77.95;72081.00;5114373;28;20197;-78
2022/02/18 00:06:00;;;;;;;19.83;3.07;;;;;;;-145.69;78.55;72082.97;5114463;28;20205;-78
2022/02/18 00:08:27;;;;;;;21.17;3.20;;;;;;;-145.69;78.48;72090.94;5104416;28;20198;-78
2022/02/18 00:10:54;;;;;;;15.20;2.60;;;;;;;-145.69;78.10;72094.94;5098421;28;20225;-78
2022/02/18 00:13:21;;;;;;;17.87;2.40;;;;;;;-145.69;76.63;72067.06;5114125;28;20205;-78
2022/02/18 00:15:48;;;;;;;13.60;2.50;;;;;;;-145.69;74.95;72047.16;5094742;28;20198;-78
2022/02/18 00:18:14;;;;;;;24.40;3.60;;;;;;;-145.69;75.42;72059.09;5093664;28;20549;-78
2022/02/18 00:20:41;;;;;;;17.23;2.80;;;;;;;-145.69;76.40;72059.09;5093684;28;20209;-78
2022/02/18 00:23:09;;;;;;;22.70;2.80;;;;;;;-145.69;77.08;72075.03;5093787;28;20592;-78
2022/02/18 00:25:38;;;;;;;19.10;2.23;;;;;;;-145.69;75.55;72043.19;5093656;28;20209;-78
2022/02/18 00:28:06;;;;;;;14.93;2.27;;;;;;;-145.69;76.36;72059.09;5111751;28;20202;-77
2022/02/18 00:30:33;;;;;;;20.27;2.63;;;;;;;-145.69;76.01;72063.09;5112881;28;20236;-78
2022/02/18 00:33:00;;;;;;;19.70;2.70;;;;;;;-145.69;77.03;72059.09;5113742;28;20201;-78
2022/02/18 00:35:27;;;;;;;19.03;2.83;;;;;;;-145.69;76.15;72043.19;5113814;28;20220;-78
2022/02/18 00:37:55;;;;;;;19.67;2.47;;;;;;;-145.69;77.05;72059.09;5113067;28;20200;-78
2022/02/18 00:40:22;;;;;;;16.50;2.83;;;;;;;-145.69;76.38;72055.13;5113500;28;20308;-78
2022/02/18 00:42:49;;;;;;;17.33;2.60;;;;;;;-145.69;75.82;72039.19;5113736;28;20197;-78
2022/02/18 00:45:16;;;;;;;15.90;2.43;;;;;;;-145.69;76.64;72051.16;5113412;28;20202;-78
2022/02/18 00:47:43;;;;;;;22.77;2.80;;;;;;;-145.69;76.42;72049.16;5113417;28;20713;-78
2022/02/18 00:50:10;;;;;;;24.47;3.17;;;;;;;-145.69;77.12;72049.16;5113477;28;20221;-78
2022/02/18 00:52:36;;;;;;;25.30;3.50;;;;;;;-145.69;76.65;72039.19;5113794;28;20593;-77
2022/02/18 00:55:03;;;;;;;17.93;3.83;;;;;;;-145.69;76.42;72035.22;5113450;28;20193;-78
2022/02/18 00:57:29;;;;;;;15.80;2.57;;;;;;;-145.69;77.74;72037.22;5113609;28;20208;-78
2022/02/18 00:59:56;;;;;;;21.10;2.80;;;;;;;-145.69;77.22;72037.22;5113569;28;20201;-78
2022/02/18 01:02:24;;;;;;;25.53;3.27;;;;;;;-145.69;76.92;72033.22;5113560;28;20212;-78
2022/02/18 01:04:50;;;;;;;27.27;3.27;;;;;;;-145.69;77.20;72031.25;5113732;28;20246;-78
2022/02/18 01:07:16;;;;;;;17.43;3.03;;;;;;;-145.69;77.47;72023.28;5111366;28;20255;-78
2022/02/18 01:09:43;;;;;;;20.93;2.63;;;;;;;-145.69;77.57;72023.28;5093126;28;20627;-78
2022/02/18 01:12:09;;;;;;;19.50;3.10;;;;;;;-145.69;79.46;72041.19;5093030;28;20198;-78
2022/02/18 01:14:36;;;;;;;16.37;3.10;;;;;;;-145.69;80.42;72057.13;5093330;28;20251;-78
2022/02/18 01:17:03;;;;;;;16.13;2.83;;;;;;;-145.69;78.98;72035.22;5093120;28;20194;-78
2022/02/18 01:19:30;;;;;;;21.97;3.27;;;;;;;-145.69;78.78;72027.25;5093092;28;20198;-78
2022/02/18 01:21:57;;;;;;;25.70;3.13;;;;;;;-145.69;78.27;72021.28;5093035;28;20202;-78
2022/02/18 01:24:23;;;;;;;19.37;3.77;;;;;;;-145.69;79.12;72043.19;5093047;28;20198;-77
2022/02/18 01:26:49;;;;;;;13.13;2.90;;;;;;;-145.69;79.92;72049.16;5093060;28;20206;-78
2022/02/18 01:29:16;;;;;;;20.60;2.87;;;;;;;-145.69;79.41;72051.16;5092792;28;20672;-77
2022/02/18 01:31:43;;;;;;;21.30;2.77;;;;;;;-145.69;80.54;72055.13;5092494;28;20198;-77
2022/02/18 01:34:09;;;;;;;15.40;2.57;;;;;;;-145.69;80.09;72041.19;5097907;28;20189;-77
2022/02/18 01:36:37;;;;;;;19.27;2.53;;;;;;;-145.69;79.97;72025.28;5113346;28;20197;-78
2022/02/18 01:39:04;;;;;;;20.77;3.47;;;;;;;-145.69;79.45;72025.28;5098906;28;20291;-77
2022/02/18 01:41:30;;;;;;;14.00;2.23;;;;;;;-145.69;78.63;72013.31;5115456;28;20205;-77
2022/02/18 01:44:00;;;;;;;19.37;2.93;;;;;;;-145.69;78.33;72011.34;5116725;28;20201;-77
2022/02/18 01:46:27;;;;;;;19.37;3.07;;;;;;;-145.69;79.00;72003.38;5117088;28;20212;-78
2022/02/18 01:48:55;;;;;;;16.37;2.20;;;;;;;-145.69;80.42;72017.31;5116902;28;20197;-78
2022/02/18 01:51:23;;;;;;;15.67;2.70;;;;;;;-145.69;80.86;72011.34;5117105;28;20588;-78
2022/02/18 01:53:51;;;;;;;20.90;3.07;;;;;;;-145.69;80.83;72023.28;5116613;28;20193;-78
2022/02/18 01:56:19;;;;;;;19.43;3.03;;;;;;;-145.69;80.13;72019.31;5116825;28;20703;-77
2022/02/18 01:58:46;;;;;;;11.83;2.57;;;;;;;-145.69;80.83;72023.28;5116680;28;20197;-78
2022/02/18 02:01:13;;;;;;;14.13;2.90;;;;;;;-145.69;81.96;72031.25;5116859;28;20263;-78
2022/02/18 02:03:40;;;;;;;19.10;3.17;;;;;;;-145.69;82.11;72035.22;5116870;28;20201;-78
2022/02/18 02:06:07;;;;;;;21.83;3.20;;;;;;;-145.69;83.57;72047.16;5116834;28;20301;-78
2022/02/18 02:08:36;;;;;;;18.43;2.77;;;;;;;-145.69;83.93;72049.16;5116706;28;20204;-78
2022/02/18 02:11:05;;;;;;;29.17;3.47;;;;;;;-145.69;83.50;72035.22;5097588;28;20706;-78
2022/02/18 02:13:33;;;;;;;25.03;2.77;;;;;;;-145.69;84.04;72037.22;5096535;28;20198;-77
2022/02/18 02:16:00;;;;;;;19.43;2.83;;;;;;;-145.69;84.59;72065.06;5095974;28;20202;-78
2022/02/18 02:18:27;;;;;;;20.20;2.93;;;;;;;-145.69;86.75;72088.97;5096188;28;20730;-78
2022/02/18 02:20:53;;;;;;;18.67;2.90;;;;;;;-145.69;87.82;72098.91;5096119;28;20194;-78
2022/02/18 02:23:21;;;;;;;18.60;3.07;;;;;;;-145.69;88.68;72106.88;5096303;28;20209;-78
2022/02/18 02:25:48;;;;;;;17.53;3.53;;;;;;;-145.69;88.91;72110.84;5096167;28;20202;-78
2022/02/18 02:28:14;;;;;;;16.33;2.63;;;;;;;-145.69;88.84;72110.84;5095988;28;20198;-78
2022/02/18 02:30:41;;;;;;;17.00;3.07;;;;;;;-145.69;88.99;72106.88;5095554;28;20230;-79
2022/02/18 02:33:08;;;;;;;19.70;3.33;;;;;;;-145.69;89.60;72102.88;5095998;28;20293;-78
2022/02/18 02:35:35;;;;;;;17.37;2.87;;;;;;;-145.69;89.94;72106.88;5095881;28;20656;-78
2022/02/18 02:38:01;;;;;;;18.17;3.17;;;;;;;-145.69;89.79;72110.84;5096769;28;20221;-78
2022/02/18 02:40:30;;;;;;;19.00;2.70;;;;;;;-145.69;91.09;72126.78;5095858;28;20206;-78
2022/02/18 02:42:56;;;;;;;11.60;2.20;;;;;;;-145.69;91.77;72124.78;5095922;28;20198;-78
2022/02/18 02:45:23;;;;;;;19.97;3.03;;;;;;;-145.69;89.65;72090.94;5095719;28;20214;-78
2022/02/18 02:47:49;;;;;;;19.60;2.80;;;;;;;-145.69;90.22;72100.91;5095531;28;20209;-78
2022/02/18 02:50:17;;;;;;;23.37;3.10;;;;;;;-145.69;89.75;72086.97;5095531;28;20222;-78
2022/02/18 02:52:43;;;;;;;19.17;2.80;;;;;;;-145.69;90.49;72122.78;5094587;28;20293;-78
2022/02/18 02:55:13;;;;;;;17.07;3.03;;;;;;;-145.69;90.75;72120.81;5095037;28;20701;-79
2022/02/18 02:57:41;;;;;;;18.17;2.30;;;;;;;-145.69;92.68;72150.66;5095513;28;20665;-79
2022/02/18 03:00:09;;;;;;;18.67;2.63;;;;;;;-145.69;93.55;72186.47;5095428;28;20247;-79
2022/02/18 03:02:35;;;;;;;19.03;2.47;;;;;;;-145.69;95.66;72170.56;5095361;28;20202;-79
2022/02/18 03:05:01;;;;;;;25.50;3.17;;;;;;;-145.69;95.51;72170.56;5095213;28;20205;-79
2022/02/18 03:07:28;;;;;;;16.52;3.33;;;;;;;-145.69;95.81;72204.38;5108989;28;20666;-79
2022/02/18 03:09:54;;;;;;;18.30;2.47;;;;;;;-145.69;98.04;72236.22;5114865;28;20200;-79
2022/02/18 03:12:21;;;;;;;17.23;2.37;;;;;;;-145.69;98.38;72220.31;5115472;28;20205;-79
2022/02/18 03:14:49;;;;;;;21.37;2.57;;;;;;;-145.69;99.56;72256.13;5115417;28;20284;-78
2022/02/18 03:17:15;;;;;;;16.90;3.13;;;;;;;-145.69;100.00;72282.00;5115264;28;20201;-78
2022/02/18 03:19:41;;;;;;;13.07;2.60;;;;;;;-145.69;100.00;72254.16;5115301;28;20197;-78
2022/02/18 03:22:08;;;;;;;12.37;2.33;;;;;;;-145.69;100.00;72282.00;5115420;28;20224;-78
2022/02/18 03:24:34;;;;;;;19.63;2.93;;;;;;;-145.69;100.00;72293.94;5115420;28;20201;-78
2022/02/18 03:27:01;;;;;;;17.33;2.77;;;;;;;-145.69;100.00;72311.88;5115348;28;20198;-79
2022/02/18 03:29:28;;;;;;;24.63;2.70;;;;;;;-145.69;100.00;72315.84;5115142;28;20559;-78
2022/02/18 03:31:55;;;;;;;12.03;2.30;;;;;;;-145.69;100.00;72327.78;5114484;28;20278;-79
2022/02/18 03:34:22;;;;;;;15.30;2.77;;;;;;;-145.69;100.00;72317.84;5113965;28;20664;-78
2022/02/18 03:36:49;;;;;;;16.57;2.83;;;;;;;-145.69;100.00;72313.84;5100546;28;20190;-78
2022/02/18 03:39:16;;;;;;;21.43;3.13;;;;;;;-145.69;100.00;72323.81;5094817;28;20205;-79
2022/02/18 03:41:42;;;;;;;16.20;2.20;;;;;;;-145.69;100.00;72341.72;5094638;28;20202;-78
2022/02/18 03:44:09;;;;;;;24.27;2.77;;;;;;;-145.69;100.00;72309.88;5094578;28;20652;-78
2022/02/18 03:46:36;;;;;;;20.10;2.90;;;;;;;-145.69;100.00;72282.00;5094134;28;20198;-78
2022/02/18 03:49:04;;;;;;;20.90;3.00;;;;;;;-145.69;100.00;72286.00;5094387;28;20653;-78
2022/02/18 03:51:31;;;;;;;16.10;2.70;;;;;;;-145.69;100.00;72272.06;5094487;28;20316;-78
2022/02/18 03:53:57;;;;;;;22.03;2.97;;;;;;;-145.69;100.00;72278.03;5094371;28;20205;-79
2022/02/18 03:56:25;;;;;;;18.43;2.73;;;;;;;-145.69;100.00;72282.00;5093885;28;20239;-78
2022/02/18 03:58:51;;;;;;;18.43;2.30;;;;;;;-145.69;100.00;72286.00;5094082;28;20203;-78
2022/02/18 04:01:18;;;;;;;17.70;2.77;;;;;;;-145.69;100.00;72282.00;5103830;28;20192;-78
2022/02/18 04:03:44;;;;;;;23.70;3.10;;;;;;;-145.69;100.00;72274.06;5113635;28;20679;-78
2022/02/18 04:06:12;;;;;;;24.77;3.23;;;;;;;-145.69;100.00;72232.25;5113939;28;20217;-78
2022/02/18 04:08:39;;;;;;;17.40;2.67;;;;;;;-145.69;100.00;72222.31;5114510;28;20288;-78
2022/02/18 04:11:05;;;;;;;19.30;3.07;;;;;;;-145.69;100.00;72192.44;5114125;28;20580;-78
2022/02/18 04:13:32;;;;;;;14.23;2.57;;;;;;;-145.69;100.00;72166.56;5113899;28;20246;-78
2022/02/18 04:15:58;;;;;;;14.63;3.03;;;;;;;-145.69;100.00;72162.59;5114043;28;20648;-78
2022/02/18 04:18:25;;;;;;;24.80;2.60;;;;;;;-145.69;100.00;72154.63;5114113;28;20208;-78
2022/02/18 04:20:51;;;;;;;16.30;2.77;;;;;;;-145.69;100.00;72146.69;5114099;28;20194;-78
2022/02/18 04:23:19;;;;;;;15.00;3.00;;;;;;;-145.69;100.00;72156.63;5114072;28;20593;-78
2022/02/18 04:25:45;;;;;;;18.13;2.50;;;;;;;-145.69;100.00;72140.69;5113969;28;20325;-79
2022/02/18 04:28:12;;;;;;;17.23;2.67;;;;;;;-145.69;100.00;72142.69;5113779;28;20201;-78
2022/02/18 04:30:38;;;;;;;10.97;2.40;;;;;;;-145.69;100.00;72142.69;5109309;28;20313;-78
2022/02/18 04:33:05;;;;;;;12.97;2.10;;;;;;;-145.69;100.00;72130.75;5093582;28;20202;-77
2022/02/18 04:35:31;;;;;;;15.97;3.20;;;;;;;-145.69;100.00;72150.66;5093471;28;20202;-77
2022/02/18 04:37:58;;;;;;;20.57;2.20;;;;;;;-145.69;100.00;72162.59;5093652;28;20195;-77
2022/02/18 04:40:25;;;;;;;17.37;2.73;;;;;;;-145.69;100.00;72146.69;5093200;28;20302;-77
2022/02/18 04:42:52;;;;;;;18.33;2.43;;;;;;;-145.69;100.00;72132.75;5093404;28;20595;-77
2022/02/18 04:45:18;;;;;;;18.20;2.47;;;;;;;-145.69;100.00;72098.91;5093572;28;20194;-77
2022/02/18 04:47:45;;;;;;;16.50;2.50;;;;;;;-145.69;100.00;72084.97;5111234;28;20189;-77
2022/02/18 04:50:11;;;;;;;34.67;3.20;;;;;;;-145.69;100.00;72073.03;5113661;28;20203;-77
2022/02/18 04:52:38;;;;;;;23.13;2.83;;;;;;;-145.69;100.00;72039.19;5113693;28;20201;-77
2022/02/18 04:55:06;;;;;;;17.97;2.63;;;;;;;-145.69;100.00;72013.31;5113287;28;20198;-77
2022/02/18 04:57:33;;;;;;;14.07;2.07;;;;;;;-145.69;99.01;72019.31;5113025;28;20721;-78
2022/02/18 05:00:00;;;;;;;18.90;2.63;;;;;;;-145.69;100.00;72025.28;5113639;28;20883;-77
2022/02/18 05:02:27;;;;;;;13.67;2.73;;;;;;;-145.69;100.00;72025.28;5096689;28;20292;-77
2022/02/18 05:04:53;;;;;;;18.13;2.37;;;;;;;-145.69;100.00;72023.28;5113323;28;20606;-78
2022/02/18 05:07:20;;;;;;;14.07;2.97;;;;;;;-145.69;100.00;72017.31;5113505;28;20233;-78
2022/02/18 05:09:47;;;;;;;14.80;3.33;;;;;;;-145.69;100.00;72023.28;5113086;28;20201;-78
2022/02/18 05:12:13;;;;;;;20.57;3.17;;;;;;;-145.69;100.00;71991.44;5113336;28;20642;-77
2022/02/18 05:14:41;;;;;;;26.83;3.87;;;;;;;-145.69;99.03;71983.47;5113609;28;20254;-77
2022/02/18 05:17:08;;;;;;;21.77;3.37;;;;;;;-145.69;99.99;71961.59;5112788;28;20193;-77
2022/02/18 05:19:34;;;;;;;19.30;3.17;;;;;;;-145.69;98.69;71917.81;5113497;28;20293;-77
2022/02/18 05:22:00;;;;;;;14.10;3.20;;;;;;;-145.69;97.33;71899.88;5113370;28;20213;-77
2022/02/18 05:24:27;;;;;;;14.87;2.50;;;;;;;-145.69;97.06;71887.94;5113348;28;20683;-77
2022/02/18 05:26:53;;;;;;;11.37;3.00;;;;;;;-145.69;95.95;71895.91;5113634;28;20333;-78
2022/02/18 05:29:20;;;;;;;14.17;2.60;;;;;;;-145.69;97.69;71907.84;5113186;28;20197;-78
2022/02/18 05:31:48;;;;;;;14.17;2.80;;;;;;;-145.69;97.65;71905.88;5099671;28;20627;-77
2022/02/18 05:34:14;;;;;;;21.10;3.07;;;;;;;-145.69;98.43;71895.91;5092830;28;20201;-77
2022/02/18 05:36:40;;;;;;;16.50;2.93;;;;;;;-145.69;97.33;71880.00;5092178;28;20625;-77
2022/02/18 05:39:07;;;;;;;13.20;2.67;;;;;;;-145.69;97.09;71862.06;5092894;28;20228;-78
2022/02/18 05:41:33;;;;;;;11.10;2.00;;;;;;;-145.69;96.18;71838.19;5093763;28;20205;-77
2022/02/18 05:44:00;;;;;;;12.37;1.97;;;;;;;-145.69;95.84;71826.25;5095321;28;20552;-77
2022/02/18 05:46:26;;;;;;;8.63;1.77;;;;;;;-145.69;95.47;71804.38;5092510;28;20559;-77
2022/02/18 05:48:54;;;;;;;20.07;2.43;;;;;;;-145.69;94.68;71798.41;5093038;28;20611;-78
2022/02/18 05:51:20;;;;;;;23.13;3.20;;;;;;;-145.69;95.99;71804.38;5092660;28;20593;-78
2022/02/18 05:53:47;;;;;;;8.63;2.30;;;;;;;-145.69;95.37;71784.47;5092870;28;20202;-78
2022/02/18 05:56:13;;;;;;;11.83;2.10;;;;;;;-145.69;95.00;71760.59;5092521;28;20230;-78
2022/02/18 05:58:41;;;;;;;14.57;2.33;;;;;;;-145.69;94.42;71754.63;5092418;28;20657;-77
2022/02/18 06:01:08;;;;;;;10.67;2.03;;;;;;;-145.69;94.52;71744.66;5101889;28;20674;-78
2022/02/18 06:03:34;;;;;;;9.10;1.80;;;;;;;-145.69;94.28;71734.72;5112877;28;20201;-78
2022/02/18 06:06:02;;;;;;;13.17;2.97;;;;;;;-145.69;94.77;71740.69;5112954;28;20205;-78
2022/02/18 06:08:29;;;;;;;9.73;1.70;;;;;;;-145.69;96.26;71756.59;5113303;28;20603;-78
2022/02/18 06:10:55;;;;;;;9.63;1.50;;;;;;;-145.69;95.42;71736.72;5112852;28;20656;-77
2022/02/18 06:13:22;;;;;;;12.97;2.00;;;;;;;-145.69;96.25;71744.66;5113167;28;20568;-77
2022/02/18 06:15:48;;;;;;;15.83;2.83;;;;;;;-145.69;96.69;71742.69;5112847;28;20208;-78
2022/02/18 06:18:15;;;;;;;9.67;1.53;;;;;;;-145.69;96.87;71744.66;5112932;28;20201;-78
2022/02/18 06:20:41;;;;;;;8.97;2.03;;;;;;;-145.69;97.04;71752.63;5112462;28;20947;-78
2022/02/18 06:23:09;;;;;;;9.77;1.77;;;;;;;-145.69;97.88;71752.63;5112812;28;20198;-78
2022/02/18 06:25:35;;;;;;;6.43;1.40;;;;;;;-145.69;98.11;71752.63;5112624;28;20200;-78
2022/02/18 06:28:06;;;;;;;8.33;1.57;;;;;;;-145.69;99.29;71744.66;5114246;28;20206;-78
2022/02/18 06:30:34;;;;;;;13.23;1.90;;;;;;;-145.69;99.40;71744.66;5111333;28;20193;-78
2022/02/18 06:33:01;;;;;;;9.30;1.93;;;;;;;-145.69;99.42;71732.72;5095773;28;20226;-78
2022/02/18 06:35:27;;;;;;;9.07;1.60;;;;;;;-145.69;99.46;71708.84;5096087;28;20264;-78
2022/02/18 06:37:54;;;;;;;8.70;1.70;;;;;;;-145.69;99.18;71692.94;5095727;28;20206;-78
2022/02/18 06:40:22;;;;;;;7.40;1.53;;;;;;;-145.69;98.57;71680.97;5095986;28;20276;-78
2022/02/18 06:42:48;;;;;;;4.47;1.47;;;;;;;-145.69;97.97;71680.97;5095952;28;20657;-78
2022/02/18 06:45:17;;;;;;;5.70;1.40;;;;;;;-145.69;98.70;71659.09;5095792;28;20280;-78
2022/02/18 06:47:45;;;;;;;9.60;1.57;;;;;;;-145.69;98.36;71637.19;5095541;28;20197;-78
2022/02/18 06:50:11;;;;;;;10.13;1.50;;;;;;;-145.69;98.14;71637.19;5095912;28;20213;-78
2022/02/18 06:52:38;;;;;;;8.37;1.60;;;;;;;-145.69;98.60;71637.19;5095694;28;20659;-78
2022/02/18 06:55:05;;;;;;;7.37;1.90;;;;;;;-145.69;98.98;71653.13;5095535;28;20198;-78
2022/02/18 06:57:33;;;;;;;6.53;1.30;;;;;;;-145.69;100.00;71653.13;5095686;28;20201;-78
2022/02/18 06:59:59;;;;;;;7.03;1.37;;;;;;;-145.69;99.87;71629.25;5097664;28;20255;-78
2022/02/18 07:02:26;;;;;;;6.03;1.10;;;;;;;-145.69;99.82;71625.25;5115853;28;20656;-78
2022/02/18 07:04:52;;;;;;;4.83;1.10;;;;;;;-145.69;97.62;71585.47;5117182;28;20227;-79
2022/02/18 07:07:19;;;;;;;7.60;1.10;;;;;;;-145.69;98.86;71597.41;5115703;28;20202;-78
2022/02/18 07:09:45;;;;;;;5.03;1.40;;;;;;;-145.69;100.00;71593.44;5115734;28;20204;-78
2022/02/18 07:12:11;;;;;;;5.80;1.40;;;;;;;-145.69;98.91;71581.50;5114968;28;20233;-79
2022/02/18 07:14:39;;;;;;;7.23;1.37;;;;;;;-145.69;100.00;71559.59;5116505;28;20208;-78
2022/02/18 07:17:06;;;;;;;7.37;1.50;;;;;;;-145.69;99.16;71541.69;5115682;28;20197;-79
2022/02/18 07:19:33;;;;;;;5.67;1.40;;;;;;;-145.69;97.73;71527.75;5115628;28;20201;-78
2022/02/18 07:22:00;;;;;;;6.77;1.10;;;;;;;-145.69;97.73;71521.78;5115315;28;20216;-78
2022/02/18 07:24:27;;;;;;;6.37;1.40;;;;;;;-145.69;98.81;71525.78;5115511;28;20229;-78
2022/02/18 07:26:53;;;;;;;5.43;1.10;;;;;;;-145.69;97.54;71493.94;5115210;28;20237;-78
2022/02/18 07:29:20;;;;;;;7.57;1.43;;;;;;;-145.69;96.99;71483.97;5114237;28;20470;-78
2022/02/18 07:31:47;;;;;;;3.30;1.00;;;;;;;-145.69;97.40;71480.00;5097809;28;20838;-77
2022/02/18 07:34:14;;;;;;;5.27;1.10;;;;;;;-145.69;97.75;71466.06;5096771;28;20247;-77
2022/02/18 07:36:40;;;;;;;4.20;0.80;;;;;;;-145.69;97.13;71450.16;5094667;28;20783;-78
2022/02/18 07:39:07;;;;;;;4.77;1.40;;;;;;;-145.69;97.19;71440.19;5094277;28;20656;-78
2022/02/18 07:41:33;;;;;;;4.03;1.23;;;;;;;-145.69;97.13;71426.28;5094463;28;20717;-78
2022/02/18 07:44:00;;;;;;;6.97;0.97;;;;;;;-145.69;97.81;71418.31;5094490;28;20213;-78
2022/02/18 07:46:26;;;;;;;6.20;1.23;;;;;;;-145.69;95.80;71398.41;5094608;28;20201;-77
2022/02/18 07:48:54;;;;;;;2.53;0.87;;;;;;;-145.69;96.87;71402.41;5094420;28;20201;-77
2022/02/18 07:51:21;;;;;;;3.77;1.07;;;;;;;-145.69;96.56;71390.47;5094399;28;20202;-78
2022/02/18 07:53:47;;;;;;;5.83;1.07;;;;;;;-145.69;94.67;71368.56;5094042;28;20600;-77
2022/02/18 07:56:13;;;;;;;2.63;0.77;;;;;;;-145.69;94.73;71366.56;5093915;28;20237;-78
2022/02/18 07:58:42;;;;;;;3.40;1.00;;;;;;;-145.69;94.01;71366.56;5093881;28;20209;-77
2022/02/18 08:01:12;;;;;;;2.80;0.90;;;;;;;-145.69;92.87;71348.66;5108465;28;20224;-78
2022/02/18 08:03:39;;;;;;;6.30;1.07;;;;;;;-145.69;92.48;71344.69;5114651;28;20229;-78
2022/02/18 08:06:08;;;;;;;2.07;1.00;;;;;;;-145.69;92.66;71350.66;5114424;28;20201;-78
2022/02/18 08:08:36;;;;;;;3.60;0.77;;;;;;;-145.69;91.34;71342.69;5114211;28;20202;-77
2022/02/18 08:11:04;;;;;;;5.47;1.10;;;;;;;-145.69;91.34;71334.75;5113645;28;20212;-77
2022/02/18 08:13:31;;;;;;;1.70;1.10;;;;;;;-145.69;91.33;71324.78;5114371;28;20274;-78
2022/02/18 08:15:57;;;;;;;3.30;1.10;;;;;;;-145.69;91.76;71330.75;5112391;28;20652;-76
2022/02/18 08:18:24;;;;;;;10.47;2.03;;;;;;;-145.69;90.80;71328.78;5114168;28;20194;-78
2022/02/18 08:20:50;;;;;;;7.20;1.17;;;;;;;-145.69;91.20;71322.81;5113110;28;20809;-77
2022/02/18 08:23:18;;;;;;;2.53;0.90;;;;;;;-145.69;91.42;71316.84;5113973;28;20200;-77
2022/02/18 08:25:45;;;;;;;4.83;1.10;;;;;;;-145.69;90.88;71292.94;5113957;28;20201;-77
2022/02/18 08:28:12;;;;;;;4.90;1.17;;;;;;;-145.69;89.35;71283.00;5114138;28;20255;-77
2022/02/18 08:30:38;;;;;;;6.53;1.13;;;;;;;-145.69;89.96;71285.00;5104175;28;20205;-77
2022/02/18 08:33:05;;;;;;;3.50;0.90;;;;;;;-145.69;88.88;71285.00;5093639;28;20579;-77
2022/02/18 08:35:32;;;;;;;3.40;1.20;;;;;;;-145.69;90.85;71292.94;5093346;28;20657;-76
2022/02/18 08:38:00;;;;;;;5.33;1.23;;;;;;;-145.69;89.59;71261.13;5105471;28;20190;-76
2022/02/18 08:40:28;;;;;;;3.00;1.20;;;;;;;-145.69;90.40;71263.09;5113678;28;20206;-78
2022/02/18 08:42:54;;;;;;;4.83;1.13;;;;;;;-145.69;88.85;71261.13;5113619;28;20777;-78
2022/02/18 08:45:21;;;;;;;3.13;1.13;;;;;;;-145.69;88.66;71243.22;5113512;28;20228;-77
2022/02/18 08:47:47;;;;;;;6.30;2.00;;;;;;;-145.69;90.11;71245.19;5113683;28;20208;-78
2022/02/18 08:50:14;;;;;;;3.60;1.37;;;;;;;-145.69;89.60;71207.38;5113021;28;20200;-77
2022/02/18 08:52:42;;;;;;;3.87;1.10;;;;;;;-145.69;88.26;71169.59;5113224;28;20229;-77
2022/02/18 08:55:11;;;;;;;2.00;1.00;;;;;;;-145.69;87.44;71139.75;5113289;28;20209;-77
2022/02/18 08:57:39;;;;;;;6.30;1.10;;;;;;;-145.69;85.38;71101.94;5113599;28;20198;-77
2022/02/18 09:00:17;;;;;;;3.30;0.97;;;;;;;-145.69;84.03;71076.06;5112475;28;20201;-77
2022/02/18 09:02:44;;;;;;;3.97;0.90;;;;;;;-145.69;83.41;71068.13;5113467;28;20303;-78
2022/02/18 09:05:11;;;;;;;6.20;1.03;;;;;;;-145.69;84.19;71076.06;5113258;28;20208;-77
2022/02/18 09:07:39;;;;;;;3.37;0.70;;;;;;;-145.69;85.56;71107.91;5109520;28;20196;-77
2022/02/18 09:10:10;;;;;;;2.63;0.80;;;;;;;-145.69;83.88;71070.09;5112058;28;20235;-78
2022/02/18 09:12:37;;;;;;;2.63;0.87;;;;;;;-145.69;83.75;71036.28;5112925;28;20274;-78
2022/02/18 09:15:09;;;;;;;4.55;1.00;;;;;;;-145.69;83.19;71048.22;5113329;28;20208;-77
2022/02/18 09:17:36;;;;;;;4.65;0.50;;;;;;;-145.69;84.14;71044.22;5113123;28;20198;-77
2022/02/18 09:20:06;;;;;;;2.92;0.80;;;;;;;-145.69;84.19;71024.34;5113472;28;20208;-79
2022/02/18 09:22:38;;;;;;;4.22;0.93;;;;;;;-145.69;83.80;71016.38;5113202;28;20205;-77
2022/02/18 09:25:06;;;;;;;3.15;0.68;;;;;;;-145.69;82.34;70974.59;5113010;28;20686;-77
2022/02/18 09:27:33;;;;;;;2.42;0.80;;;;;;;-145.69;83.20;71000.47;5112998;28;20208;-77
2022/02/18 09:30:03;;;;;;;1.27;0.65;;;;;;;-145.69;83.41;71012.41;5113023;28;20197;-78
2022/02/18 09:32:33;;;;;;;3.00;1.00;;;;;;;-145.69;83.42;71010.41;5109694;28;20248;-77
2022/02/18 09:35:03;;;;;;;1.92;0.90;;;;;;;-145.69;83.48;71008.41;5113094;28;20209;-77
2022/02/18 09:37:30;;;;;;;4.18;0.80;;;;;;;-145.69;83.74;71020.34;5113579;28;20197;-77
2022/02/18 09:39:57;;;;;;;2.92;0.73;;;;;;;-145.69;84.65;71012.41;5096283;28;20198;-77
2022/02/18 09:42:29;;;;;;;5.00;0.80;;;;;;;-145.69;84.50;71024.34;5092580;28;20205;-76
2022/02/18 09:44:58;;;;;;;4.72;1.13;;;;;;;-145.69;83.38;70984.53;5093529;28;20202;-77
2022/02/18 09:47:26;;;;;;;6.53;0.88;;;;;;;-145.69;81.98;70958.69;5092462;28;20209;-77
2022/02/18 09:49:54;;;;;;;8.63;1.02;;;;;;;-145.69;81.69;70958.69;5092653;28;20198;-76
2022/02/18 09:52:22;;;;;;;4.70;0.60;;;;;;;-145.69;82.38;70938.78;5092651;28;20222;-77
2022/02/18 09:54:49;;;;;;;5.82;0.85;;;;;;;-145.69;81.02;70920.88;5092428;28;20191;-77
2022/02/18 09:57:26;;;;;;;6.03;0.80;;;;;;;-145.69;79.63;70908.94;5092285;28;20595;-78
2022/02/18 09:59:54;;;;;;;4.65;1.30;;;;;;;-145.69;79.78;70912.91;5092470;28;20773;-76
2022/02/18 10:02:23;;;;;;;5.30;0.90;;;;;;;-145.69;79.15;70889.03;5100082;28;20193;-77
2022/02/18 10:04:53;;;;;;;1.85;0.70;;;;;;;-145.69;77.88;70855.22;5115788;28;20205;-76
2022/02/18 10:07:25;;;;;;;3.08;1.05;;;;;;;-145.69;78.63;70861.19;5096064;28;20209;-77
2022/02/18 10:09:59;;;;;;;3.45;0.85;;;;;;;-145.69;78.24;70873.13;5096211;28;20285;-77
2022/02/18 10:12:35;;;;;;;7.40;0.80;;;;;;;-145.69;78.66;70857.22;5096255;28;20226;-76
2022/02/18 10:15:09;;;;;;;3.35;1.10;;;;;;;-145.69;77.71;70853.22;5096357;28;20201;-77
2022/02/18 10:17:40;;;;;;;1.42;0.70;;;;;;;-145.69;78.82;70845.28;5095716;28;20563;-76
2022/02/18 10:20:18;;;;;;;3.97;0.90;;;;;;;-145.69;78.57;70847.25;5096076;28;20327;-77
2022/02/18 10:23:07;;;;;;;4.40;1.00;;;;;;;-145.69;76.82;70837.31;5096165;28;20232;-77
2022/02/18 10:25:41;;;;;;;4.63;1.13;;;;;;;-145.69;78.84;70843.28;5096084;28;20198;-77
2022/02/18 10:28:11;;;;;;;4.28;1.20;;;;;;;-145.69;77.25;70819.41;5095168;28;20479;-76
2022/02/18 10:30:39;;;;;;;5.10;1.00;;;;;;;-145.69;76.75;70789.56;5094337;28;20210;-76
2022/02/18 10:33:16;;;;;;;7.30;0.90;;;;;;;-145.69;75.57;70793.53;5106589;28;20229;-79
2022/02/18 10:35:46;;;;;;;5.22;0.80;;;;;;;-145.69;75.75;70815.44;5116281;28;20567;-77
2022/02/18 10:38:30;;;;;;;8.35;0.90;;;;;;;-145.69;77.13;70793.53;5115733;28;20229;-76
2022/02/18 10:41:02;;;;;;;8.85;1.00;;;;;;;-145.69;74.51;70777.63;5115371;28;20201;-75
2022/02/18 10:43:49;;;;;;;3.65;1.08;;;;;;;-145.69;76.29;70761.72;5115347;28;20672;-76
2022/02/18 10:46:16;;;;;;;1.45;0.93;;;;;;;-145.69;75.07;70757.72;5115997;28;20291;-76
2022/02/18 10:48:48;;;;;;;4.57;1.08;;;;;;;-145.69;74.65;70735.84;5115969;28;20201;-76
2022/02/18 10:51:20;;;;;;;3.10;0.90;;;;;;;-145.69;73.83;70717.94;5115613;28;20709;-76
2022/02/18 10:53:49;;;;;;;7.53;1.02;;;;;;;-145.69;73.35;70654.28;5115679;28;20225;-76
2022/02/18 10:56:17;;;;;;;6.80;0.93;;;;;;;-145.69;71.94;70670.19;5115283;28;20264;-77
2022/02/18 10:58:47;;;;;;;3.22;1.30;;;;;;;-145.69;71.50;70630.41;5115788;28;20205;-78
2022/02/18 11:01:17;;;;;;;5.47;1.40;;;;;;;-145.69;71.75;70656.25;5115636;28;20201;-77
2022/02/18 11:03:47;;;;;;;8.77;1.23;;;;;;;-145.69;71.71;70682.13;5103778;28;20207;-77
2022/02/18 11:06:22;;;;;;;6.80;0.93;;;;;;;-145.69;71.58;70713.97;5114833;28;20200;-76
2022/02/18 11:08:54;;;;;;;5.53;1.08;;;;;;;-145.69;71.98;70688.09;5115130;28;20687;-76
2022/02/18 11:11:27;;;;;;;2.25;0.70;;;;;;;-145.69;72.29;70662.22;5115272;28;20208;-77
2022/02/18 11:14:01;;;;;;;10.82;1.00;;;;;;;-145.69;73.13;70634.38;5114468;28;20240;-77